sensor_id;sensor_type;location;lat;lon;timestamp;P1;durP1;ratioP1;P2;durP2;ratioP2
69392;SDS011;56582;44.624;20.378;2022-11-27T00:01:54;73.85;;;31.58;;
69392;SDS011;56582;44.624;20.378;2022-11-27T00:04:19;78.20;;;32.90;;
69392;SDS011;56582;44.624;20.378;2022-11-27T00:06:44;78.30;;;31.20;;
69392;SDS011;56582;44.624;20.378;2022-11-27T00:09:11;75.03;;;29.80;;
69392;SDS011;56582;44.624;20.378;2022-11-27T00:11:39;73.85;;;28.50;;
69392;SDS011;56582;44.624;20.378;2022-11-27T00:14:05;66.90;;;30.48;;
69392;SDS011;56582;44.624;20.378;2022-11-27T00:16:31;72.90;;;32.00;;
69392;SDS011;56582;44.624;20.378;2022-11-27T00:18:56;78.73;;;33.63;;
69392;SDS011;56582;44.624;20.378;2022-11-27T00:21:33;79.53;;;33.55;;
69392;SDS011;56582;44.624;20.378;2022-11-27T00:24:01;73.60;;;32.58;;
69392;SDS011;56582;44.624;20.378;2022-11-27T00:26:29;79.95;;;33.38;;
69392;SDS011;56582;44.624;20.378;2022-11-27T00:28:55;74.80;;;31.13;;
69392;SDS011;56582;44.624;20.378;2022-11-27T00:31:26;71.50;;;29.27;;
69392;SDS011;56582;44.624;20.378;2022-11-27T00:34:00;77.72;;;31.00;;
69392;SDS011;56582;44.624;20.378;2022-11-27T00:36:27;68.70;;;30.23;;
69392;SDS011;56582;44.624;20.378;2022-11-27T00:38:54;70.45;;;30.00;;
69392;SDS011;56582;44.624;20.378;2022-11-27T00:41:21;66.90;;;28.77;;
69392;SDS011;56582;44.624;20.378;2022-11-27T00:43:48;78.00;;;31.58;;
69392;SDS011;56582;44.624;20.378;2022-11-27T00:46:18;67.67;;;29.33;;
69392;SDS011;56582;44.624;20.378;2022-11-27T00:48:48;70.35;;;28.98;;
69392;SDS011;56582;44.624;20.378;2022-11-27T00:51:17;74.33;;;30.20;;
69392;SDS011;56582;44.624;20.378;2022-11-27T00:53:44;68.68;;;29.75;;
69392;SDS011;56582;44.624;20.378;2022-11-27T00:56:30;67.45;;;29.15;;
69392;SDS011;56582;44.624;20.378;2022-11-27T00:58:58;66.53;;;28.73;;
69392;SDS011;56582;44.624;20.378;2022-11-27T01:01:26;64.90;;;28.77;;
69392;SDS011;56582;44.624;20.378;2022-11-27T01:03:54;67.53;;;28.85;;
69392;SDS011;56582;44.624;20.378;2022-11-27T01:06:21;63.83;;;26.83;;
69392;SDS011;56582;44.624;20.378;2022-11-27T01:08:48;65.43;;;27.50;;
69392;SDS011;56582;44.624;20.378;2022-11-27T01:11:17;62.67;;;27.37;;
69392;SDS011;56582;44.624;20.378;2022-11-27T01:13:49;64.97;;;28.20;;
69392;SDS011;56582;44.624;20.378;2022-11-27T01:16:17;60.63;;;25.92;;
69392;SDS011;56582;44.624;20.378;2022-11-27T01:18:45;60.15;;;27.13;;
69392;SDS011;56582;44.624;20.378;2022-11-27T01:21:14;60.47;;;25.20;;
69392;SDS011;56582;44.624;20.378;2022-11-27T01:23:41;56.83;;;26.02;;
69392;SDS011;56582;44.624;20.378;2022-11-27T01:26:08;64.43;;;28.13;;
69392;SDS011;56582;44.624;20.378;2022-11-27T01:28:34;64.03;;;27.47;;
69392;SDS011;56582;44.624;20.378;2022-11-27T01:31:08;60.10;;;28.13;;
69392;SDS011;56582;44.624;20.378;2022-11-27T01:33:36;58.25;;;28.60;;
69392;SDS011;56582;44.624;20.378;2022-11-27T01:36:03;52.03;;;26.27;;
69392;SDS011;56582;44.624;20.378;2022-11-27T01:38:30;57.40;;;27.33;;
69392;SDS011;56582;44.624;20.378;2022-11-27T01:41:00;60.83;;;27.40;;
69392;SDS011;56582;44.624;20.378;2022-11-27T01:43:38;57.17;;;28.95;;
69392;SDS011;56582;44.624;20.378;2022-11-27T01:46:23;51.57;;;26.77;;
69392;SDS011;56582;44.624;20.378;2022-11-27T01:49:20;58.40;;;28.20;;
69392;SDS011;56582;44.624;20.378;2022-11-27T01:54:18;57.33;;;27.70;;
69392;SDS011;56582;44.624;20.378;2022-11-27T01:56:47;57.90;;;27.85;;
69392;SDS011;56582;44.624;20.378;2022-11-27T01:59:16;55.63;;;25.97;;
69392;SDS011;56582;44.624;20.378;2022-11-27T02:01:42;57.80;;;27.48;;
69392;SDS011;56582;44.624;20.378;2022-11-27T02:04:08;53.37;;;26.50;;
69392;SDS011;56582;44.624;20.378;2022-11-27T02:06:33;52.50;;;27.17;;
69392;SDS011;56582;44.624;20.378;2022-11-27T02:08:59;62.63;;;29.60;;
69392;SDS011;56582;44.624;20.378;2022-11-27T02:14:24;91.80;;;42.80;;
69392;SDS011;56582;44.624;20.378;2022-11-27T02:17:05;85.50;;;37.58;;
69392;SDS011;56582;44.624;20.378;2022-11-27T02:22:04;76.65;;;34.75;;
69392;SDS011;56582;44.624;20.378;2022-11-27T02:24:53;84.28;;;35.65;;
69392;SDS011;56582;44.624;20.378;2022-11-27T02:30:07;80.45;;;35.88;;
69392;SDS011;56582;44.624;20.378;2022-11-27T02:32:47;82.45;;;35.88;;
69392;SDS011;56582;44.624;20.378;2022-11-27T02:37:47;82.10;;;36.22;;
69392;SDS011;56582;44.624;20.378;2022-11-27T02:42:54;80.10;;;34.67;;
69392;SDS011;56582;44.624;20.378;2022-11-27T02:45:23;79.97;;;35.40;;
69392;SDS011;56582;44.624;20.378;2022-11-27T02:47:52;71.35;;;32.00;;
69392;SDS011;56582;44.624;20.378;2022-11-27T02:50:20;60.33;;;28.45;;
69392;SDS011;56582;44.624;20.378;2022-11-27T02:52:48;56.80;;;25.17;;
69392;SDS011;56582;44.624;20.378;2022-11-27T02:55:16;60.50;;;27.40;;
69392;SDS011;56582;44.624;20.378;2022-11-27T02:57:45;64.15;;;27.20;;
69392;SDS011;56582;44.624;20.378;2022-11-27T03:00:12;66.22;;;29.70;;
69392;SDS011;56582;44.624;20.378;2022-11-27T03:02:39;71.82;;;29.58;;
69392;SDS011;56582;44.624;20.378;2022-11-27T03:05:11;67.73;;;28.80;;
69392;SDS011;56582;44.624;20.378;2022-11-27T03:07:58;75.40;;;27.73;;
69392;SDS011;56582;44.624;20.378;2022-11-27T03:13:14;66.18;;;28.30;;
69392;SDS011;56582;44.624;20.378;2022-11-27T03:16:06;70.50;;;29.83;;
69392;SDS011;56582;44.624;20.378;2022-11-27T03:21:05;71.68;;;30.17;;
69392;SDS011;56582;44.624;20.378;2022-11-27T03:23:41;78.80;;;32.83;;
69392;SDS011;56582;44.624;20.378;2022-11-27T03:26:06;75.20;;;33.33;;
69392;SDS011;56582;44.624;20.378;2022-11-27T03:28:32;81.90;;;33.37;;
69392;SDS011;56582;44.624;20.378;2022-11-27T03:30:58;78.57;;;32.97;;
69392;SDS011;56582;44.624;20.378;2022-11-27T03:33:23;82.43;;;34.35;;
69392;SDS011;56582;44.624;20.378;2022-11-27T03:35:50;105.70;;;32.37;;
69392;SDS011;56582;44.624;20.378;2022-11-27T03:38:16;87.22;;;33.45;;
69392;SDS011;56582;44.624;20.378;2022-11-27T03:40:47;96.53;;;31.93;;
69392;SDS011;56582;44.624;20.378;2022-11-27T03:43:22;88.97;;;33.85;;
69392;SDS011;56582;44.624;20.378;2022-11-27T03:48:30;102.00;;;32.07;;
69392;SDS011;56582;44.624;20.378;2022-11-27T03:51:22;98.82;;;33.05;;
69392;SDS011;56582;44.624;20.378;2022-11-27T03:54:21;78.25;;;31.10;;
69392;SDS011;56582;44.624;20.378;2022-11-27T03:57:06;102.03;;;34.58;;
69392;SDS011;56582;44.624;20.378;2022-11-27T03:59:50;90.50;;;36.17;;
69392;SDS011;56582;44.624;20.378;2022-11-27T04:02:29;80.17;;;34.23;;
69392;SDS011;56582;44.624;20.378;2022-11-27T04:05:03;82.03;;;34.70;;
69392;SDS011;56582;44.624;20.378;2022-11-27T04:07:29;83.75;;;33.88;;
69392;SDS011;56582;44.624;20.378;2022-11-27T04:09:54;88.03;;;34.20;;
69392;SDS011;56582;44.624;20.378;2022-11-27T04:12:19;78.33;;;33.03;;
69392;SDS011;56582;44.624;20.378;2022-11-27T04:14:45;86.43;;;34.90;;
69392;SDS011;56582;44.624;20.378;2022-11-27T04:17:10;85.63;;;34.10;;
69392;SDS011;56582;44.624;20.378;2022-11-27T04:19:36;83.37;;;35.67;;
69392;SDS011;56582;44.624;20.378;2022-11-27T04:22:01;95.90;;;36.90;;
69392;SDS011;56582;44.624;20.378;2022-11-27T04:24:27;86.10;;;34.20;;
69392;SDS011;56582;44.624;20.378;2022-11-27T04:26:52;89.35;;;36.67;;
69392;SDS011;56582;44.624;20.378;2022-11-27T04:29:17;98.87;;;36.83;;
69392;SDS011;56582;44.624;20.378;2022-11-27T04:31:43;97.37;;;37.77;;
69392;SDS011;56582;44.624;20.378;2022-11-27T04:34:08;88.13;;;36.20;;
69392;SDS011;56582;44.624;20.378;2022-11-27T04:36:34;87.23;;;35.40;;
69392;SDS011;56582;44.624;20.378;2022-11-27T04:38:59;93.15;;;37.95;;
69392;SDS011;56582;44.624;20.378;2022-11-27T04:41:24;92.20;;;35.77;;
69392;SDS011;56582;44.624;20.378;2022-11-27T04:43:50;96.87;;;37.20;;
69392;SDS011;56582;44.624;20.378;2022-11-27T04:46:15;103.73;;;40.63;;
69392;SDS011;56582;44.624;20.378;2022-11-27T04:48:41;102.57;;;41.53;;
69392;SDS011;56582;44.624;20.378;2022-11-27T04:51:06;105.57;;;40.75;;
69392;SDS011;56582;44.624;20.378;2022-11-27T04:53:31;106.17;;;40.23;;
69392;SDS011;56582;44.624;20.378;2022-11-27T04:55:57;101.73;;;41.00;;
69392;SDS011;56582;44.624;20.378;2022-11-27T04:58:22;109.47;;;41.33;;
69392;SDS011;56582;44.624;20.378;2022-11-27T05:00:48;106.97;;;42.57;;
69392;SDS011;56582;44.624;20.378;2022-11-27T05:03:14;107.03;;;42.40;;
69392;SDS011;56582;44.624;20.378;2022-11-27T05:05:40;113.17;;;43.07;;
69392;SDS011;56582;44.624;20.378;2022-11-27T05:08:05;108.93;;;42.20;;
69392;SDS011;56582;44.624;20.378;2022-11-27T05:10:30;109.57;;;42.53;;
69392;SDS011;56582;44.624;20.378;2022-11-27T05:12:56;123.00;;;45.47;;
69392;SDS011;56582;44.624;20.378;2022-11-27T05:15:21;127.13;;;44.87;;
69392;SDS011;56582;44.624;20.378;2022-11-27T05:17:47;115.47;;;47.40;;
69392;SDS011;56582;44.624;20.378;2022-11-27T05:20:12;124.07;;;45.75;;
69392;SDS011;56582;44.624;20.378;2022-11-27T05:22:37;125.50;;;45.10;;
69392;SDS011;56582;44.624;20.378;2022-11-27T05:25:03;117.93;;;44.77;;
69392;SDS011;56582;44.624;20.378;2022-11-27T05:27:28;123.25;;;46.10;;
69392;SDS011;56582;44.624;20.378;2022-11-27T05:29:54;125.50;;;46.47;;
69392;SDS011;56582;44.624;20.378;2022-11-27T05:32:19;121.50;;;48.10;;
69392;SDS011;56582;44.624;20.378;2022-11-27T05:34:45;123.93;;;45.80;;
69392;SDS011;56582;44.624;20.378;2022-11-27T05:37:12;111.13;;;44.47;;
69392;SDS011;56582;44.624;20.378;2022-11-27T05:39:38;116.68;;;44.72;;
69392;SDS011;56582;44.624;20.378;2022-11-27T05:42:04;120.40;;;45.63;;
69392;SDS011;56582;44.624;20.378;2022-11-27T05:44:29;140.18;;;46.55;;
69392;SDS011;56582;44.624;20.378;2022-11-27T05:46:55;125.87;;;46.17;;
69392;SDS011;56582;44.624;20.378;2022-11-27T05:49:21;133.23;;;45.67;;
69392;SDS011;56582;44.624;20.378;2022-11-27T05:51:46;162.45;;;47.80;;
69392;SDS011;56582;44.624;20.378;2022-11-27T05:54:12;131.33;;;47.63;;
69392;SDS011;56582;44.624;20.378;2022-11-27T05:56:37;125.43;;;46.00;;
69392;SDS011;56582;44.624;20.378;2022-11-27T05:59:03;131.55;;;48.00;;
69392;SDS011;56582;44.624;20.378;2022-11-27T06:01:28;138.27;;;50.90;;
69392;SDS011;56582;44.624;20.378;2022-11-27T06:03:54;152.23;;;47.87;;
69392;SDS011;56582;44.624;20.378;2022-11-27T06:06:19;136.40;;;49.63;;
69392;SDS011;56582;44.624;20.378;2022-11-27T06:08:45;131.97;;;47.00;;
69392;SDS011;56582;44.624;20.378;2022-11-27T06:11:12;133.88;;;47.97;;
69392;SDS011;56582;44.624;20.378;2022-11-27T06:13:42;127.85;;;46.35;;
69392;SDS011;56582;44.624;20.378;2022-11-27T06:16:13;133.17;;;45.77;;
69392;SDS011;56582;44.624;20.378;2022-11-27T06:18:40;132.85;;;47.60;;
69392;SDS011;56582;44.624;20.378;2022-11-27T06:21:07;128.57;;;48.15;;
69392;SDS011;56582;44.624;20.378;2022-11-27T06:23:33;129.35;;;44.80;;
69392;SDS011;56582;44.624;20.378;2022-11-27T06:26:07;129.63;;;45.23;;
69392;SDS011;56582;44.624;20.378;2022-11-27T06:28:39;122.93;;;47.10;;
69392;SDS011;56582;44.624;20.378;2022-11-27T06:31:06;121.47;;;45.53;;
69392;SDS011;56582;44.624;20.378;2022-11-27T06:33:32;117.88;;;44.38;;
69392;SDS011;56582;44.624;20.378;2022-11-27T06:35:58;129.60;;;47.60;;
69392;SDS011;56582;44.624;20.378;2022-11-27T06:38:23;120.03;;;44.47;;
69392;SDS011;56582;44.624;20.378;2022-11-27T06:40:49;124.85;;;45.05;;
69392;SDS011;56582;44.624;20.378;2022-11-27T06:43:14;130.77;;;47.07;;
69392;SDS011;56582;44.624;20.378;2022-11-27T06:45:40;132.17;;;44.63;;
69392;SDS011;56582;44.624;20.378;2022-11-27T06:48:05;126.63;;;43.97;;
69392;SDS011;56582;44.624;20.378;2022-11-27T06:50:30;139.18;;;46.53;;
69392;SDS011;56582;44.624;20.378;2022-11-27T06:52:56;130.20;;;45.17;;
69392;SDS011;56582;44.624;20.378;2022-11-27T06:55:21;128.93;;;44.97;;
69392;SDS011;56582;44.624;20.378;2022-11-27T06:57:48;139.60;;;41.93;;
69392;SDS011;56582;44.624;20.378;2022-11-27T07:00:15;120.07;;;44.17;;
69392;SDS011;56582;44.624;20.378;2022-11-27T07:02:41;137.77;;;45.85;;
69392;SDS011;56582;44.624;20.378;2022-11-27T07:05:06;120.60;;;43.97;;
69392;SDS011;56582;44.624;20.378;2022-11-27T07:07:32;123.18;;;44.38;;
69392;SDS011;56582;44.624;20.378;2022-11-27T07:09:57;120.23;;;44.00;;
69392;SDS011;56582;44.624;20.378;2022-11-27T07:12:26;125.17;;;44.40;;
69392;SDS011;56582;44.624;20.378;2022-11-27T07:14:51;121.20;;;44.67;;
69392;SDS011;56582;44.624;20.378;2022-11-27T07:17:16;123.50;;;44.90;;
69392;SDS011;56582;44.624;20.378;2022-11-27T07:19:42;125.80;;;44.60;;
69392;SDS011;56582;44.624;20.378;2022-11-27T07:22:07;127.60;;;49.42;;
69392;SDS011;56582;44.624;20.378;2022-11-27T07:24:33;124.07;;;44.87;;
69392;SDS011;56582;44.624;20.378;2022-11-27T07:26:59;121.68;;;45.67;;
69392;SDS011;56582;44.624;20.378;2022-11-27T07:29:24;124.43;;;46.00;;
69392;SDS011;56582;44.624;20.378;2022-11-27T07:31:50;128.50;;;45.63;;
69392;SDS011;56582;44.624;20.378;2022-11-27T07:34:15;115.17;;;43.43;;
69392;SDS011;56582;44.624;20.378;2022-11-27T07:36:41;120.95;;;44.38;;
69392;SDS011;56582;44.624;20.378;2022-11-27T07:39:06;113.63;;;44.93;;
69392;SDS011;56582;44.624;20.378;2022-11-27T07:41:32;116.30;;;43.30;;
69392;SDS011;56582;44.624;20.378;2022-11-27T07:43:57;117.47;;;45.53;;
69392;SDS011;56582;44.624;20.378;2022-11-27T07:46:23;116.88;;;41.58;;
69392;SDS011;56582;44.624;20.378;2022-11-27T07:48:49;144.10;;;46.53;;
69392;SDS011;56582;44.624;20.378;2022-11-27T07:51:16;112.17;;;44.90;;
69392;SDS011;56582;44.624;20.378;2022-11-27T07:53:43;115.25;;;44.42;;
69392;SDS011;56582;44.624;20.378;2022-11-27T07:56:10;125.43;;;47.38;;
69392;SDS011;56582;44.624;20.378;2022-11-27T07:58:37;116.70;;;42.50;;
69392;SDS011;56582;44.624;20.378;2022-11-27T08:01:09;117.50;;;44.37;;
69392;SDS011;56582;44.624;20.378;2022-11-27T08:03:36;109.00;;;42.95;;
69392;SDS011;56582;44.624;20.378;2022-11-27T08:06:02;115.10;;;44.00;;
69392;SDS011;56582;44.624;20.378;2022-11-27T08:08:27;105.80;;;41.70;;
69392;SDS011;56582;44.624;20.378;2022-11-27T08:10:53;110.67;;;43.17;;
69392;SDS011;56582;44.624;20.378;2022-11-27T08:13:18;109.93;;;42.03;;
69392;SDS011;56582;44.624;20.378;2022-11-27T08:15:44;108.37;;;41.70;;
69392;SDS011;56582;44.624;20.378;2022-11-27T08:18:10;101.47;;;38.47;;
69392;SDS011;56582;44.624;20.378;2022-11-27T08:20:36;103.20;;;42.90;;
69392;SDS011;56582;44.624;20.378;2022-11-27T08:23:02;109.63;;;42.67;;
69392;SDS011;56582;44.624;20.378;2022-11-27T08:25:27;112.30;;;42.33;;
69392;SDS011;56582;44.624;20.378;2022-11-27T08:27:53;115.17;;;42.50;;
69392;SDS011;56582;44.624;20.378;2022-11-27T08:30:18;113.40;;;44.10;;
69392;SDS011;56582;44.624;20.378;2022-11-27T08:32:46;115.17;;;45.43;;
69392;SDS011;56582;44.624;20.378;2022-11-27T08:35:11;117.95;;;45.40;;
69392;SDS011;56582;44.624;20.378;2022-11-27T08:37:37;118.90;;;43.63;;
69392;SDS011;56582;44.624;20.378;2022-11-27T08:40:02;115.40;;;44.93;;
69392;SDS011;56582;44.624;20.378;2022-11-27T08:42:29;114.40;;;44.17;;
69392;SDS011;56582;44.624;20.378;2022-11-27T08:44:54;119.33;;;45.57;;
69392;SDS011;56582;44.624;20.378;2022-11-27T08:47:20;119.20;;;48.08;;
69392;SDS011;56582;44.624;20.378;2022-11-27T08:49:45;119.57;;;45.90;;
69392;SDS011;56582;44.624;20.378;2022-11-27T08:52:11;115.27;;;45.83;;
69392;SDS011;56582;44.624;20.378;2022-11-27T08:54:36;116.67;;;45.83;;
69392;SDS011;56582;44.624;20.378;2022-11-27T08:57:02;109.63;;;44.60;;
69392;SDS011;56582;44.624;20.378;2022-11-27T08:59:28;110.27;;;45.57;;
69392;SDS011;56582;44.624;20.378;2022-11-27T09:01:53;117.07;;;46.80;;
69392;SDS011;56582;44.624;20.378;2022-11-27T09:04:19;92.37;;;38.13;;
69392;SDS011;56582;44.624;20.378;2022-11-27T09:06:44;103.80;;;40.40;;
69392;SDS011;56582;44.624;20.378;2022-11-27T09:09:10;110.78;;;44.38;;
69392;SDS011;56582;44.624;20.378;2022-11-27T09:11:36;91.57;;;36.97;;
69392;SDS011;56582;44.624;20.378;2022-11-27T09:14:02;104.05;;;41.58;;
69392;SDS011;56582;44.624;20.378;2022-11-27T09:16:28;104.40;;;44.60;;
69392;SDS011;56582;44.624;20.378;2022-11-27T09:18:54;107.97;;;44.85;;
69392;SDS011;56582;44.624;20.378;2022-11-27T09:21:22;106.70;;;43.70;;
69392;SDS011;56582;44.624;20.378;2022-11-27T09:23:51;104.32;;;44.75;;
69392;SDS011;56582;44.624;20.378;2022-11-27T09:26:19;101.38;;;43.55;;
69392;SDS011;56582;44.624;20.378;2022-11-27T09:28:47;110.22;;;43.53;;
69392;SDS011;56582;44.624;20.378;2022-11-27T09:31:13;115.10;;;45.93;;
69392;SDS011;56582;44.624;20.378;2022-11-27T09:33:39;114.72;;;46.70;;
69392;SDS011;56582;44.624;20.378;2022-11-27T09:36:09;113.60;;;46.80;;
69392;SDS011;56582;44.624;20.378;2022-11-27T09:38:39;115.13;;;45.67;;
69392;SDS011;56582;44.624;20.378;2022-11-27T09:41:50;118.18;;;46.67;;
69392;SDS011;56582;44.624;20.378;2022-11-27T09:44:00;108.68;;;45.78;;
69392;SDS011;56582;44.624;20.378;2022-11-27T09:46:37;109.28;;;44.88;;
69392;SDS011;56582;44.624;20.378;2022-11-27T09:49:12;102.20;;;44.00;;
69392;SDS011;56582;44.624;20.378;2022-11-27T09:51:54;108.13;;;44.75;;
69392;SDS011;56582;44.624;20.378;2022-11-27T09:54:42;98.30;;;42.78;;
69392;SDS011;56582;44.624;20.378;2022-11-27T09:57:14;91.25;;;38.47;;
69392;SDS011;56582;44.624;20.378;2022-11-27T09:59:48;103.57;;;44.45;;
69392;SDS011;56582;44.624;20.378;2022-11-27T10:02:16;98.27;;;41.50;;
69392;SDS011;56582;44.624;20.378;2022-11-27T10:04:52;95.20;;;41.22;;
69392;SDS011;56582;44.624;20.378;2022-11-27T10:08:19;88.35;;;36.63;;
69392;SDS011;56582;44.624;20.378;2022-11-27T10:10:31;95.57;;;37.50;;
69392;SDS011;56582;44.624;20.378;2022-11-27T10:16:12;96.68;;;40.42;;
69392;SDS011;56582;44.624;20.378;2022-11-27T10:18:50;97.63;;;40.80;;
69392;SDS011;56582;44.624;20.378;2022-11-27T10:26:53;91.50;;;39.28;;
69392;SDS011;56582;44.624;20.378;2022-11-27T10:29:41;102.53;;;43.22;;
69392;SDS011;56582;44.624;20.378;2022-11-27T10:32:13;102.85;;;44.88;;
69392;SDS011;56582;44.624;20.378;2022-11-27T10:34:46;93.72;;;40.78;;
69392;SDS011;56582;44.624;20.378;2022-11-27T10:37:35;86.90;;;35.47;;
69392;SDS011;56582;44.624;20.378;2022-11-27T10:42:35;91.95;;;40.00;;
69392;SDS011;56582;44.624;20.378;2022-11-27T10:45:06;94.22;;;41.17;;
69392;SDS011;56582;44.624;20.378;2022-11-27T10:47:52;93.32;;;40.05;;
69392;SDS011;56582;44.624;20.378;2022-11-27T10:50:18;90.60;;;38.20;;
69392;SDS011;56582;44.624;20.378;2022-11-27T10:55:27;86.67;;;36.77;;
69392;SDS011;56582;44.624;20.378;2022-11-27T10:58:17;96.85;;;39.38;;
69392;SDS011;56582;44.624;20.378;2022-11-27T11:01:06;95.45;;;40.83;;
69392;SDS011;56582;44.624;20.378;2022-11-27T11:03:36;99.88;;;42.58;;
69392;SDS011;56582;44.624;20.378;2022-11-27T11:06:06;100.40;;;43.90;;
69392;SDS011;56582;44.624;20.378;2022-11-27T11:08:38;101.72;;;46.42;;
69392;SDS011;56582;44.624;20.378;2022-11-27T11:11:05;97.60;;;46.07;;
69392;SDS011;56582;44.624;20.378;2022-11-27T11:13:32;86.30;;;39.63;;
69392;SDS011;56582;44.624;20.378;2022-11-27T11:18:41;91.90;;;39.63;;
69392;SDS011;56582;44.624;20.378;2022-11-27T11:21:26;90.20;;;38.50;;
69392;SDS011;56582;44.624;20.378;2022-11-27T11:24:05;96.20;;;41.58;;
69392;SDS011;56582;44.624;20.378;2022-11-27T11:26:43;92.55;;;40.95;;
69392;SDS011;56582;44.624;20.378;2022-11-27T11:29:56;85.95;;;36.67;;
69392;SDS011;56582;44.624;20.378;2022-11-27T11:32:20;80.22;;;36.83;;
69392;SDS011;56582;44.624;20.378;2022-11-27T11:37:19;81.35;;;33.00;;
69392;SDS011;56582;44.624;20.378;2022-11-27T11:39:45;90.80;;;38.03;;
69392;SDS011;56582;44.624;20.378;2022-11-27T11:42:20;86.22;;;34.90;;
69392;SDS011;56582;44.624;20.378;2022-11-27T11:44:53;70.70;;;31.98;;
69392;SDS011;56582;44.624;20.378;2022-11-27T11:47:24;70.17;;;29.77;;
69392;SDS011;56582;44.624;20.378;2022-11-27T11:49:50;71.07;;;31.83;;
69392;SDS011;56582;44.624;20.378;2022-11-27T11:55:02;78.85;;;32.92;;
69392;SDS011;56582;44.624;20.378;2022-11-27T12:00:18;80.90;;;35.20;;
69392;SDS011;56582;44.624;20.378;2022-11-27T12:10:52;79.80;;;36.20;;
69392;SDS011;56582;44.624;20.378;2022-11-27T12:16:26;91.50;;;37.33;;
69392;SDS011;56582;44.624;20.378;2022-11-27T12:30:14;84.47;;;35.42;;
69392;SDS011;56582;44.624;20.378;2022-11-27T12:40:28;108.15;;;43.03;;
69392;SDS011;56582;44.624;20.378;2022-11-27T12:48:45;93.18;;;38.28;;
69392;SDS011;56582;44.624;20.378;2022-11-27T12:51:18;68.63;;;28.70;;
69392;SDS011;56582;44.624;20.378;2022-11-27T12:53:56;61.97;;;25.85;;
69392;SDS011;56582;44.624;20.378;2022-11-27T12:56:41;89.07;;;37.00;;
69392;SDS011;56582;44.624;20.378;2022-11-27T12:59:15;88.43;;;34.95;;
69392;SDS011;56582;44.624;20.378;2022-11-27T13:01:46;90.45;;;36.45;;
69392;SDS011;56582;44.624;20.378;2022-11-27T13:07:21;64.35;;;26.15;;
69392;SDS011;56582;44.624;20.378;2022-11-27T13:12:37;72.93;;;30.13;;
69392;SDS011;56582;44.624;20.378;2022-11-27T13:15:31;87.85;;;36.33;;
69392;SDS011;56582;44.624;20.378;2022-11-27T13:18:07;82.63;;;35.40;;
69392;SDS011;56582;44.624;20.378;2022-11-27T13:20:42;89.07;;;37.65;;
69392;SDS011;56582;44.624;20.378;2022-11-27T13:23:10;90.88;;;36.83;;
69392;SDS011;56582;44.624;20.378;2022-11-27T13:25:38;87.93;;;33.38;;
69392;SDS011;56582;44.624;20.378;2022-11-27T13:28:19;74.67;;;30.40;;
69392;SDS011;56582;44.624;20.378;2022-11-27T13:30:48;114.15;;;45.60;;
69392;SDS011;56582;44.624;20.378;2022-11-27T13:33:23;108.40;;;47.75;;
69392;SDS011;56582;44.624;20.378;2022-11-27T13:35:59;92.82;;;40.50;;
69392;SDS011;56582;44.624;20.378;2022-11-27T13:38:27;94.38;;;40.35;;
69392;SDS011;56582;44.624;20.378;2022-11-27T13:40:54;95.57;;;35.73;;
69392;SDS011;56582;44.624;20.378;2022-11-27T13:45:47;106.82;;;42.00;;
69392;SDS011;56582;44.624;20.378;2022-11-27T13:50:58;101.72;;;37.58;;
69392;SDS011;56582;44.624;20.378;2022-11-27T13:53:32;90.90;;;35.73;;
69392;SDS011;56582;44.624;20.378;2022-11-27T13:56:06;87.85;;;35.05;;
69392;SDS011;56582;44.624;20.378;2022-11-27T14:03:40;87.20;;;31.57;;
69392;SDS011;56582;44.624;20.378;2022-11-27T14:09:01;76.72;;;29.17;;
69392;SDS011;56582;44.624;20.378;2022-11-27T14:14:11;107.63;;;40.60;;
69392;SDS011;56582;44.624;20.378;2022-11-27T14:16:55;87.93;;;34.67;;
69392;SDS011;56582;44.624;20.378;2022-11-27T14:19:26;88.03;;;31.50;;
69392;SDS011;56582;44.624;20.378;2022-11-27T14:21:57;84.03;;;31.58;;
69392;SDS011;56582;44.624;20.378;2022-11-27T14:27:20;90.88;;;34.30;;
69392;SDS011;56582;44.624;20.378;2022-11-27T14:29:47;74.05;;;29.20;;
69392;SDS011;56582;44.624;20.378;2022-11-27T14:32:14;88.57;;;32.13;;
69392;SDS011;56582;44.624;20.378;2022-11-27T14:34:40;98.43;;;35.53;;
69392;SDS011;56582;44.624;20.378;2022-11-27T14:37:06;92.18;;;32.63;;
69392;SDS011;56582;44.624;20.378;2022-11-27T14:39:43;98.32;;;36.15;;
69392;SDS011;56582;44.624;20.378;2022-11-27T14:45:09;66.30;;;25.67;;
69392;SDS011;56582;44.624;20.378;2022-11-27T14:47:39;70.40;;;28.07;;
69392;SDS011;56582;44.624;20.378;2022-11-27T14:50:11;63.72;;;24.25;;
69392;SDS011;56582;44.624;20.378;2022-11-27T14:52:38;67.47;;;26.40;;
69392;SDS011;56582;44.624;20.378;2022-11-27T14:55:10;70.13;;;26.67;;
69392;SDS011;56582;44.624;20.378;2022-11-27T14:57:38;77.85;;;30.10;;
69392;SDS011;56582;44.624;20.378;2022-11-27T15:02:40;86.55;;;38.38;;
69392;SDS011;56582;44.624;20.378;2022-11-27T15:05:06;71.22;;;28.02;;
69392;SDS011;56582;44.624;20.378;2022-11-27T15:07:33;72.83;;;29.27;;
69392;SDS011;56582;44.624;20.378;2022-11-27T15:10:02;77.07;;;31.00;;
69392;SDS011;56582;44.624;20.378;2022-11-27T15:12:32;80.10;;;32.55;;
69392;SDS011;56582;44.624;20.378;2022-11-27T15:15:05;75.55;;;31.95;;
69392;SDS011;56582;44.624;20.378;2022-11-27T15:17:33;81.03;;;30.75;;
69392;SDS011;56582;44.624;20.378;2022-11-27T15:20:01;86.83;;;33.17;;
69392;SDS011;56582;44.624;20.378;2022-11-27T15:22:28;85.70;;;35.17;;
69392;SDS011;56582;44.624;20.378;2022-11-27T15:25:01;80.63;;;31.73;;
69392;SDS011;56582;44.624;20.378;2022-11-27T15:27:31;74.93;;;29.17;;
69392;SDS011;56582;44.624;20.378;2022-11-27T15:30:09;72.03;;;28.38;;
69392;SDS011;56582;44.624;20.378;2022-11-27T15:32:42;79.07;;;31.63;;
69392;SDS011;56582;44.624;20.378;2022-11-27T15:35:22;55.15;;;22.92;;
69392;SDS011;56582;44.624;20.378;2022-11-27T15:37:48;55.38;;;22.23;;
69392;SDS011;56582;44.624;20.378;2022-11-27T15:43:12;71.10;;;27.80;;
69392;SDS011;56582;44.624;20.378;2022-11-27T15:45:40;55.37;;;23.17;;
69392;SDS011;56582;44.624;20.378;2022-11-27T15:48:14;54.72;;;23.30;;
69392;SDS011;56582;44.624;20.378;2022-11-27T15:50:41;66.03;;;23.05;;
69392;SDS011;56582;44.624;20.378;2022-11-27T15:53:07;61.92;;;28.25;;
69392;SDS011;56582;44.624;20.378;2022-11-27T15:55:33;44.60;;;19.60;;
69392;SDS011;56582;44.624;20.378;2022-11-27T15:57:58;54.83;;;23.03;;
69392;SDS011;56582;44.624;20.378;2022-11-27T16:00:24;62.78;;;25.88;;
69392;SDS011;56582;44.624;20.378;2022-11-27T16:02:50;53.57;;;23.07;;
69392;SDS011;56582;44.624;20.378;2022-11-27T16:05:17;50.50;;;21.80;;
69392;SDS011;56582;44.624;20.378;2022-11-27T16:07:43;59.78;;;27.45;;
69392;SDS011;56582;44.624;20.378;2022-11-27T16:10:09;65.23;;;30.50;;
69392;SDS011;56582;44.624;20.378;2022-11-27T16:12:34;82.20;;;39.85;;
69392;SDS011;56582;44.624;20.378;2022-11-27T16:15:00;63.37;;;27.77;;